createdAt,value
2022-10-12T00:01:25.195Z,22.30
2022-10-12T00:03:54.982Z,24.15
2022-10-12T00:06:25.096Z,25.60
2022-10-12T00:08:55.461Z,26.13
2022-10-12T00:11:27.151Z,26.05
2022-10-12T00:13:57.140Z,24.95
2022-10-12T00:16:26.611Z,23.17
2022-10-12T00:18:58.427Z,24.17
2022-10-12T00:21:28.181Z,22.55
2022-10-12T00:23:58.962Z,21.90
2022-10-12T00:26:29.175Z,20.25
2022-10-12T00:29:00.012Z,20.73
2022-10-12T00:31:30.166Z,26.02
2022-10-12T00:34:03.192Z,22.52
2022-10-12T00:36:34.007Z,26.00
2022-10-12T00:39:04.546Z,24.88
2022-10-12T00:41:37.954Z,25.85
2022-10-12T00:44:36.384Z,21.67
2022-10-12T00:47:08.515Z,21.92
2022-10-12T00:49:39.000Z,24.05
2022-10-12T00:52:11.620Z,21.05
2022-10-12T00:54:47.631Z,24.90
2022-10-12T00:57:19.747Z,30.05
2022-10-12T00:59:53.185Z,23.50
2022-10-12T01:02:22.887Z,26.42
2022-10-12T01:04:53.452Z,22.40
2022-10-12T01:07:22.276Z,23.85
2022-10-12T01:09:51.195Z,23.98
2022-10-12T01:12:20.890Z,22.05
2022-10-12T01:14:49.390Z,20.70
2022-10-12T01:17:31.214Z,22.08
2022-10-12T01:20:26.760Z,24.30
2022-10-12T01:23:07.310Z,21.85
2022-10-12T01:25:55.073Z,23.00
2022-10-12T01:28:37.355Z,23.88
2022-10-12T01:31:16.873Z,28.73
2022-10-12T01:33:49.650Z,25.88
2022-10-12T01:36:27.230Z,25.63
2022-10-12T01:39:02.012Z,22.20
2022-10-12T01:41:36.171Z,27.15
2022-10-12T01:44:04.620Z,24.52
2022-10-12T01:46:48.048Z,23.27
2022-10-12T01:49:19.090Z,22.80
2022-10-12T01:52:09.670Z,23.70
2022-10-12T01:54:51.258Z,24.00
2022-10-12T01:57:29.838Z,24.85
2022-10-12T02:00:05.217Z,23.70
2022-10-12T02:02:45.977Z,26.27
2022-10-12T02:05:19.943Z,24.23
2022-10-12T02:07:53.439Z,27.42
2022-10-12T02:10:30.177Z,20.70
2022-10-12T02:13:02.880Z,21.48
2022-10-12T02:15:33.240Z,20.30
2022-10-12T02:18:05.566Z,22.10
2022-10-12T02:20:38.008Z,24.50
2022-10-12T02:23:06.584Z,23.67
2022-10-12T02:25:36.252Z,27.13
2022-10-12T02:28:09.687Z,22.85
2022-10-12T02:30:46.283Z,25.10
2022-10-12T02:33:24.771Z,23.98
2022-10-12T02:35:59.976Z,23.00
2022-10-12T02:38:34.020Z,28.45
2022-10-12T02:41:05.825Z,23.33
2022-10-12T02:43:40.416Z,22.42
2022-10-12T02:46:11.562Z,23.02
2022-10-12T02:48:42.983Z,25.35
2022-10-12T02:51:12.438Z,24.40
2022-10-12T02:53:41.951Z,22.95
2022-10-12T02:56:14.205Z,28.88
2022-10-12T02:58:44.798Z,23.98
2022-10-12T03:01:15.021Z,25.75
2022-10-12T03:03:45.424Z,24.30
2022-10-12T03:06:14.703Z,26.92
2022-10-12T03:08:43.060Z,32.00
2022-10-12T03:11:14.743Z,27.25
2022-10-12T03:13:43.313Z,27.00
2022-10-12T03:16:13.434Z,29.00
2022-10-12T03:18:42.302Z,22.30
2022-10-12T03:21:12.711Z,27.23
2022-10-12T03:23:41.059Z,31.15
2022-10-12T03:26:10.146Z,27.27
2022-10-12T03:28:38.824Z,28.55
2022-10-12T03:31:07.313Z,24.88
2022-10-12T03:33:35.646Z,24.90
2022-10-12T03:36:05.154Z,26.88
2022-10-12T03:38:34.892Z,28.60
2022-10-12T03:41:06.705Z,28.17
2022-10-12T03:43:35.954Z,21.48
2022-10-12T03:46:04.331Z,23.60
2022-10-12T03:48:32.920Z,24.83
2022-10-12T03:51:01.318Z,26.50
2022-10-12T03:53:29.672Z,27.52
2022-10-12T03:55:59.471Z,25.48
2022-10-12T03:58:28.286Z,24.83
2022-10-12T04:00:57.032Z,26.10
2022-10-12T04:03:25.865Z,24.50
2022-10-12T04:05:55.621Z,23.17
2022-10-12T04:08:26.770Z,22.40
2022-10-12T04:10:56.115Z,24.05
2022-10-12T04:13:25.977Z,25.63
2022-10-12T04:15:54.348Z,19.63
2022-10-12T04:18:23.115Z,22.00
2022-10-12T04:20:51.696Z,23.58
2022-10-12T04:23:20.445Z,27.40
2022-10-12T04:25:48.834Z,26.15
2022-10-12T04:28:17.869Z,21.45
2022-10-12T04:30:48.259Z,26.30
2022-10-12T04:33:16.700Z,19.30
2022-10-12T04:35:45.237Z,23.27
2022-10-12T04:38:14.030Z,23.75
2022-10-12T04:40:43.067Z,21.23
2022-10-12T04:43:11.427Z,22.08
2022-10-12T04:45:40.498Z,24.63
2022-10-12T04:48:10.449Z,24.08
2022-10-12T04:50:39.507Z,26.85
2022-10-12T04:53:07.874Z,23.58
2022-10-12T04:55:39.239Z,26.15
2022-10-12T04:58:07.707Z,26.67
2022-10-12T05:00:36.370Z,25.67
2022-10-12T05:03:06.315Z,24.90
2022-10-12T05:05:36.573Z,23.95
2022-10-12T05:08:05.754Z,27.35
2022-10-12T05:10:34.595Z,23.83
2022-10-12T05:13:03.319Z,23.23
2022-10-12T05:15:31.784Z,24.90
2022-10-12T05:18:00.976Z,19.60
2022-10-12T05:20:29.631Z,21.27
2022-10-12T05:23:00.026Z,23.13
2022-10-12T05:25:29.457Z,22.45
2022-10-12T05:27:58.854Z,23.02
2022-10-12T05:30:27.618Z,19.58
2022-10-12T05:32:56.190Z,23.13
2022-10-12T05:35:25.217Z,20.67
2022-10-12T05:37:53.748Z,18.55
2022-10-12T05:40:23.933Z,22.05
2022-10-12T05:42:52.416Z,24.75
2022-10-12T05:45:20.927Z,18.90
2022-10-12T05:47:49.356Z,25.63
2022-10-12T05:50:18.419Z,25.77
2022-10-12T05:52:47.431Z,22.08
2022-10-12T05:55:16.632Z,25.42
2022-10-12T05:57:51.612Z,23.02
2022-10-12T06:00:21.650Z,34.05
2022-10-12T06:02:50.198Z,20.55
2022-10-12T06:05:18.867Z,23.38
2022-10-12T06:07:47.236Z,22.52
2022-10-12T06:10:16.399Z,30.17
2022-10-12T06:12:46.084Z,22.60
2022-10-12T06:15:15.463Z,27.17
2022-10-12T06:17:43.864Z,22.77
2022-10-12T06:20:13.258Z,21.88
2022-10-12T06:22:41.770Z,24.30
2022-10-12T06:25:10.965Z,20.80
2022-10-12T06:27:39.371Z,24.05
2022-10-12T06:30:10.621Z,22.15
2022-10-12T06:32:40.086Z,22.90
2022-10-12T06:35:09.900Z,23.75
2022-10-12T06:37:49.529Z,34.88
2022-10-12T06:40:19.933Z,25.98
2022-10-12T06:42:53.739Z,25.23
2022-10-12T06:45:25.927Z,25.15
2022-10-12T06:47:54.616Z,29.48
2022-10-12T06:50:22.985Z,23.13
2022-10-12T06:52:51.447Z,26.60
2022-10-12T06:55:20.684Z,25.80
2022-10-12T06:57:49.117Z,23.80
2022-10-12T07:00:18.671Z,19.63
2022-10-12T07:02:50.279Z,23.02
2022-10-12T07:05:19.092Z,30.65
2022-10-12T07:07:47.866Z,27.23
2022-10-12T07:10:16.656Z,23.02
2022-10-12T07:12:45.058Z,23.17
2022-10-12T07:15:13.539Z,25.38
2022-10-12T07:17:42.360Z,22.15
2022-10-12T07:20:12.618Z,24.30
2022-10-12T07:22:41.853Z,17.65
2022-10-12T07:25:10.838Z,23.52
2022-10-12T07:27:39.662Z,22.75
2022-10-12T07:30:10.522Z,20.98
2022-10-12T07:32:38.901Z,26.05
2022-10-12T07:35:08.364Z,24.98
2022-10-12T07:37:38.558Z,23.75
2022-10-12T07:40:09.629Z,21.10
2022-10-12T07:42:53.719Z,26.83
2022-10-12T07:45:28.630Z,19.17
2022-10-12T07:47:57.243Z,24.95
2022-10-12T07:50:26.601Z,24.98
2022-10-12T07:52:56.316Z,24.05
2022-10-12T07:55:25.390Z,30.42
2022-10-12T07:57:54.165Z,21.80
2022-10-12T08:00:22.816Z,25.25
2022-10-12T08:02:51.165Z,19.90
2022-10-12T08:05:21.250Z,21.85
2022-10-12T08:07:49.728Z,32.17
2022-10-12T08:10:20.476Z,20.70
2022-10-12T08:12:52.083Z,23.40
2022-10-12T08:15:20.742Z,20.20
2022-10-12T08:17:50.016Z,21.23
2022-10-12T08:20:19.114Z,20.48
2022-10-12T08:22:48.177Z,22.80
2022-10-12T08:25:16.775Z,24.90
2022-10-12T08:27:47.077Z,31.73
2022-10-12T08:30:15.932Z,33.88
2022-10-12T08:32:44.317Z,30.08
2022-10-12T08:35:12.788Z,30.25
2022-10-12T08:37:42.293Z,29.30
2022-10-12T08:40:15.697Z,26.25
2022-10-12T08:42:57.079Z,26.00
2022-10-12T08:45:48.679Z,28.75
2022-10-12T08:48:20.194Z,26.83
2022-10-12T08:50:54.770Z,32.42
2022-10-12T08:53:27.032Z,28.45
2022-10-12T08:55:56.815Z,28.05
2022-10-12T08:58:32.253Z,28.48
2022-10-12T09:01:16.548Z,24.92
2022-10-12T09:03:56.640Z,26.13
2022-10-12T09:06:30.262Z,31.98
2022-10-12T09:09:10.910Z,27.98
2022-10-12T09:11:51.802Z,27.10
2022-10-12T09:14:26.120Z,36.63
2022-10-12T09:16:57.454Z,26.83
2022-10-12T09:19:30.803Z,25.00
2022-10-12T09:21:59.384Z,29.02
2022-10-12T09:24:32.664Z,29.10
2022-10-12T09:27:05.490Z,29.05
2022-10-12T09:29:35.560Z,30.15
2022-10-12T09:32:21.295Z,26.52
2022-10-12T09:34:50.478Z,25.65
2022-10-12T09:37:23.084Z,25.77
2022-10-12T09:39:52.305Z,30.00
2022-10-12T09:42:21.559Z,27.40
2022-10-12T09:44:56.698Z,28.48
2022-10-12T09:47:28.847Z,24.30
2022-10-12T09:50:01.093Z,32.50
2022-10-12T09:52:33.097Z,29.10
2022-10-12T09:55:05.525Z,25.33
2022-10-12T09:57:37.309Z,27.58
2022-10-12T10:00:24.358Z,23.90
2022-10-12T10:02:54.511Z,29.77
2022-10-12T10:05:28.613Z,29.52
2022-10-12T10:08:18.610Z,26.25
2022-10-12T10:10:51.938Z,25.27
2022-10-12T10:13:21.963Z,29.83
2022-10-12T10:16:02.649Z,30.50
2022-10-12T10:18:35.800Z,24.10
2022-10-12T10:21:07.535Z,27.17
2022-10-12T10:23:40.648Z,22.60
2022-10-12T10:26:12.275Z,25.73
2022-10-12T10:28:42.183Z,24.50
2022-10-12T10:31:23.608Z,24.48
2022-10-12T10:34:12.650Z,23.63
2022-10-12T10:36:46.401Z,28.88
2022-10-12T10:39:21.808Z,25.45
2022-10-12T10:41:51.740Z,28.33
2022-10-12T10:44:26.205Z,25.25
2022-10-12T10:46:58.191Z,23.10
2022-10-12T10:49:35.020Z,25.58
2022-10-12T10:52:05.082Z,27.98
2022-10-12T10:54:36.484Z,21.63
2022-10-12T10:57:11.144Z,22.80
2022-10-12T10:59:46.547Z,27.95
2022-10-12T11:02:28.109Z,26.38
2022-10-12T11:05:04.474Z,28.77
2022-10-12T11:07:38.611Z,24.60
2022-10-12T11:10:21.632Z,23.15
2022-10-12T11:12:55.927Z,28.75
2022-10-12T11:15:28.282Z,28.77
2022-10-12T11:18:08.822Z,24.52
2022-10-12T11:20:51.399Z,22.13
2022-10-12T11:23:28.462Z,23.33
2022-10-12T11:26:05.204Z,26.67
2022-10-12T11:28:34.730Z,26.08
2022-10-12T11:31:03.643Z,26.63
2022-10-12T11:33:39.464Z,26.17
2022-10-12T11:36:11.278Z,26.55
2022-10-12T11:38:44.099Z,27.05
2022-10-12T11:41:35.074Z,29.52
2022-10-12T11:44:11.898Z,32.58
2022-10-12T11:46:48.421Z,31.60
2022-10-12T11:49:27.777Z,28.88
2022-10-12T11:51:59.188Z,28.20
2022-10-12T11:54:34.025Z,30.02
2022-10-12T11:57:08.791Z,25.33
2022-10-12T11:59:42.619Z,22.98
2022-10-12T12:02:18.815Z,23.35
2022-10-12T12:04:50.422Z,25.15
2022-10-12T12:07:48.318Z,32.58
2022-10-12T12:10:59.782Z,28.02
2022-10-12T12:13:28.547Z,24.20
2022-10-12T12:16:34.990Z,25.10
2022-10-12T12:19:18.747Z,20.52
2022-10-12T12:22:29.027Z,21.25
2022-10-12T12:25:15.114Z,23.55
2022-10-12T12:27:46.613Z,20.70
2022-10-12T12:30:37.340Z,24.08
2022-10-12T12:33:25.776Z,23.15
2022-10-12T12:35:58.014Z,24.83
2022-10-12T12:38:34.192Z,22.88
2022-10-12T12:41:10.390Z,21.60
2022-10-12T12:44:04.098Z,20.75
2022-10-12T12:50:01.583Z,24.40
2022-10-12T12:52:34.024Z,22.08
2022-10-12T12:55:41.636Z,26.60
2022-10-12T12:58:37.544Z,24.80
2022-10-12T13:01:25.986Z,22.45
2022-10-12T13:04:19.023Z,26.13
2022-10-12T13:07:30.655Z,20.15
2022-10-12T13:10:11.362Z,21.73
2022-10-12T13:13:09.743Z,23.73
2022-10-12T13:15:48.328Z,28.17
2022-10-12T13:18:47.554Z,24.25
2022-10-12T13:21:20.715Z,27.67
2022-10-12T13:23:51.233Z,22.45
2022-10-12T13:26:24.937Z,23.38
2022-10-12T13:28:56.246Z,23.42
2022-10-12T13:31:29.132Z,23.08
2022-10-12T13:34:10.633Z,21.85
2022-10-12T13:36:50.284Z,22.20
2022-10-12T13:39:21.510Z,20.80
2022-10-12T13:41:53.369Z,20.00
2022-10-12T13:44:27.610Z,23.52
2022-10-12T13:46:59.274Z,22.95
2022-10-12T13:49:29.805Z,22.70
2022-10-12T13:52:00.600Z,20.85
2022-10-12T13:54:38.190Z,22.08
2022-10-12T13:57:19.160Z,21.48
2022-10-12T13:59:53.617Z,22.70
2022-10-12T14:02:24.922Z,20.42
2022-10-12T14:04:56.107Z,24.10
2022-10-12T14:07:27.442Z,21.30
2022-10-12T14:10:07.031Z,21.05
2022-10-12T14:12:37.432Z,24.23
2022-10-12T14:15:09.165Z,23.20
2022-10-12T14:17:44.542Z,18.98
2022-10-12T14:20:18.672Z,20.77
2022-10-12T14:22:50.197Z,22.58
2022-10-12T14:25:21.395Z,19.92
2022-10-12T14:27:56.241Z,22.77
2022-10-12T14:30:29.941Z,22.30
2022-10-12T14:33:11.866Z,28.23
2022-10-12T14:35:42.156Z,20.05
2022-10-12T14:38:38.173Z,26.70
2022-10-12T14:41:35.840Z,23.08
2022-10-12T14:44:10.626Z,21.88
2022-10-12T14:46:43.713Z,23.55
2022-10-12T14:49:18.449Z,20.13
2022-10-12T14:51:47.774Z,21.90
2022-10-12T14:54:16.497Z,23.77
2022-10-12T14:56:47.499Z,17.92
2022-10-12T14:59:15.976Z,18.70
2022-10-12T15:01:47.771Z,20.60
2022-10-12T15:04:20.090Z,18.77
2022-10-12T15:06:51.100Z,18.85
2022-10-12T15:09:20.282Z,25.25
2022-10-12T15:11:48.648Z,18.65
2022-10-12T15:14:17.507Z,21.52
2022-10-12T15:16:48.307Z,18.55
2022-10-12T15:19:16.710Z,19.95
2022-10-12T15:21:45.165Z,24.95
2022-10-12T15:24:16.301Z,22.70
2022-10-12T15:26:44.695Z,24.15
2022-10-12T15:29:13.416Z,21.27
2022-10-12T15:31:41.782Z,18.80
2022-10-12T15:34:14.696Z,21.52
2022-10-12T15:36:43.397Z,22.92
2022-10-12T15:39:12.042Z,21.83
2022-10-12T15:41:40.850Z,24.73
2022-10-12T15:44:12.480Z,23.17
2022-10-12T15:46:42.010Z,24.50
2022-10-12T15:49:13.379Z,27.63
2022-10-12T15:51:48.292Z,21.38
2022-10-12T15:54:17.452Z,22.45
2022-10-12T15:56:46.921Z,24.38
2022-10-12T15:59:15.847Z,22.30
2022-10-12T16:01:44.841Z,27.45
2022-10-12T16:04:16.874Z,24.58
2022-10-12T16:06:46.970Z,24.92
2022-10-12T16:09:15.313Z,24.95
2022-10-12T16:11:43.775Z,21.80
2022-10-12T16:14:15.180Z,26.67
2022-10-12T16:16:43.629Z,23.33
2022-10-12T16:19:11.995Z,23.75
2022-10-12T16:21:42.053Z,23.38
2022-10-12T16:24:12.995Z,25.10
2022-10-12T16:26:44.865Z,24.58
2022-10-12T16:29:14.577Z,29.08
2022-10-12T16:34:16.755Z,28.15
2022-10-12T16:36:46.884Z,23.30
2022-10-12T16:39:15.250Z,23.50
2022-10-12T16:41:44.171Z,24.15
2022-10-12T16:44:12.901Z,24.10
2022-10-12T16:46:41.745Z,24.75
2022-10-12T16:49:10.181Z,32.67
2022-10-12T16:51:41.589Z,26.08
2022-10-12T16:54:11.686Z,28.33
2022-10-12T16:56:40.058Z,21.17
2022-10-12T16:59:08.944Z,24.58
2022-10-12T17:01:37.344Z,27.00
2022-10-12T17:04:06.681Z,26.15
2022-10-12T17:06:35.082Z,28.55
2022-10-12T17:09:04.564Z,32.70
2022-10-12T17:11:38.831Z,31.50
2022-10-12T17:14:08.661Z,36.33
2022-10-12T17:16:52.683Z,27.85
2022-10-12T17:19:22.737Z,29.00
2022-10-12T17:21:52.566Z,30.15
2022-10-12T17:24:24.676Z,31.13
2022-10-12T17:26:55.144Z,29.42
2022-10-12T17:29:25.539Z,39.22
2022-10-12T17:32:00.487Z,30.17
2022-10-12T17:34:41.226Z,25.17
2022-10-12T17:37:12.625Z,30.40
2022-10-12T17:39:43.651Z,33.35
2022-10-12T17:42:14.033Z,30.00
2022-10-12T17:44:42.623Z,29.38
2022-10-12T17:47:11.414Z,29.08
2022-10-12T17:49:42.887Z,30.13
2022-10-12T17:52:14.337Z,37.35
2022-10-12T17:54:43.203Z,34.03
2022-10-12T17:57:12.891Z,39.50
2022-10-12T17:59:41.272Z,45.50
2022-10-12T18:02:11.399Z,43.08
2022-10-12T18:04:39.748Z,39.92
2022-10-12T18:07:08.585Z,37.45
2022-10-12T18:09:38.055Z,33.33
2022-10-12T18:12:06.801Z,30.48
2022-10-12T18:14:36.565Z,28.95
2022-10-12T18:17:05.352Z,29.42
2022-10-12T18:19:33.965Z,29.98
2022-10-12T18:22:02.427Z,26.70
2022-10-12T18:24:31.489Z,29.90
2022-10-12T18:27:00.238Z,29.17
2022-10-12T18:29:28.672Z,26.23
2022-10-12T18:32:02.168Z,32.55
2022-10-12T18:34:35.670Z,31.38
2022-10-12T18:37:05.157Z,30.80
2022-10-12T18:39:33.667Z,32.53
2022-10-12T18:42:02.533Z,32.72
2022-10-12T18:44:37.502Z,27.02
2022-10-12T18:47:07.396Z,29.27
2022-10-12T18:49:38.042Z,29.73
2022-10-12T18:52:06.576Z,29.50
2022-10-12T18:54:36.027Z,29.17
2022-10-12T18:57:04.610Z,30.70
2022-10-12T18:59:33.507Z,30.63
2022-10-12T19:02:02.506Z,25.58
2022-10-12T19:04:32.282Z,28.23
2022-10-12T19:07:00.970Z,27.73
2022-10-12T19:09:30.065Z,27.05
2022-10-12T19:11:58.890Z,29.50
2022-10-12T19:14:27.400Z,30.83
2022-10-12T19:16:55.875Z,29.88
2022-10-12T19:19:25.024Z,33.58
2022-10-12T19:21:54.958Z,30.90
2022-10-12T19:24:23.599Z,30.13
2022-10-12T19:26:52.671Z,29.30
2022-10-12T19:29:23.531Z,32.90
2022-10-12T19:31:53.827Z,35.28
2022-10-12T19:34:23.620Z,29.95
2022-10-12T19:36:54.331Z,30.25
2022-10-12T19:39:24.345Z,30.98
2022-10-12T19:41:54.223Z,30.38
2022-10-12T19:44:26.046Z,28.17
2022-10-12T19:46:54.419Z,27.35
2022-10-12T19:49:23.453Z,28.67
2022-10-12T19:51:56.004Z,26.48
2022-10-12T19:54:24.530Z,23.85
2022-10-12T19:56:56.712Z,31.10
2022-10-12T19:59:27.779Z,25.00
2022-10-12T20:01:56.979Z,29.50
2022-10-12T20:04:25.760Z,29.83
2022-10-12T20:06:55.559Z,28.02
2022-10-12T20:09:23.992Z,27.63
2022-10-12T20:11:52.735Z,28.40
2022-10-12T20:14:21.634Z,25.08
2022-10-12T20:16:50.414Z,26.83
2022-10-12T20:19:19.245Z,30.40
2022-10-12T20:21:47.632Z,30.50
2022-10-12T20:24:17.998Z,30.65
2022-10-12T20:26:46.577Z,30.75
2022-10-12T20:29:14.956Z,34.25
2022-10-12T20:31:44.470Z,34.70
2022-10-12T20:34:12.923Z,47.25
2022-10-12T20:36:42.051Z,36.03
2022-10-12T20:39:10.650Z,32.13
2022-10-12T20:41:40.985Z,33.42
2022-10-12T20:44:11.147Z,31.17
2022-10-12T20:46:39.619Z,27.67
2022-10-12T20:49:08.761Z,31.13
2022-10-12T20:51:39.973Z,34.85
2022-10-12T20:54:09.182Z,34.85
2022-10-12T20:56:44.122Z,28.27
2022-10-12T20:59:12.622Z,32.70
2022-10-12T21:01:42.357Z,29.85
2022-10-12T21:04:11.200Z,29.17
2022-10-12T21:06:41.572Z,30.85
2022-10-12T21:09:14.727Z,39.33
2022-10-12T21:11:44.527Z,28.02
2022-10-12T21:14:13.986Z,28.00
2022-10-12T21:16:42.620Z,31.00
2022-10-12T21:19:15.459Z,26.48
2022-10-12T21:21:43.967Z,28.77
2022-10-12T21:24:13.588Z,34.72
2022-10-12T21:26:42.440Z,31.05
2022-10-12T21:29:12.351Z,30.70
2022-10-12T21:31:40.932Z,31.63
2022-10-12T21:34:11.385Z,33.97
2022-10-12T21:36:40.750Z,40.50
2022-10-12T21:39:11.882Z,30.52
2022-10-12T21:41:40.943Z,30.45
2022-10-12T21:44:09.432Z,31.38
2022-10-12T21:46:39.713Z,29.38
2022-10-12T21:49:09.355Z,31.17
2022-10-12T21:51:38.652Z,37.08
2022-10-12T21:54:07.794Z,32.95
2022-10-12T21:56:38.930Z,57.25
2022-10-12T21:59:07.989Z,42.08
2022-10-12T22:01:41.967Z,36.35
2022-10-12T22:04:13.702Z,36.83
2022-10-12T22:06:43.401Z,41.80
2022-10-12T22:09:17.047Z,38.38
2022-10-12T22:11:46.955Z,38.42
2022-10-12T22:14:18.193Z,39.33
2022-10-12T22:16:48.679Z,36.03
2022-10-12T22:19:19.479Z,31.73
2022-10-12T22:21:51.035Z,30.27
2022-10-12T22:24:22.293Z,32.30
2022-10-12T22:26:50.901Z,34.95
2022-10-12T22:29:19.325Z,33.70
2022-10-12T22:31:49.136Z,37.58
2022-10-12T22:34:17.554Z,32.97
2022-10-12T22:36:46.657Z,29.10
2022-10-12T22:39:15.996Z,31.48
2022-10-12T22:41:45.987Z,32.58
2022-10-12T22:44:14.409Z,34.13
2022-10-12T22:46:42.831Z,32.33
2022-10-12T22:49:12.878Z,30.40
2022-10-12T22:51:41.766Z,28.40
2022-10-12T22:54:11.055Z,30.02
2022-10-12T22:56:42.989Z,32.65
2022-10-12T22:59:14.156Z,30.33
2022-10-12T23:01:42.688Z,35.78
2022-10-12T23:04:12.595Z,32.45
2022-10-12T23:06:41.115Z,34.15
2022-10-12T23:09:09.842Z,34.13
2022-10-12T23:11:38.584Z,34.53
2022-10-12T23:14:06.986Z,33.08
2022-10-12T23:16:35.422Z,35.03
2022-10-12T23:19:06.824Z,34.45
2022-10-12T23:21:37.151Z,30.73
2022-10-12T23:24:06.408Z,34.90
2022-10-12T23:26:35.968Z,31.98
2022-10-12T23:29:04.951Z,28.95
2022-10-12T23:31:35.929Z,39.28
2022-10-12T23:34:06.567Z,32.90
2022-10-12T23:36:37.135Z,34.95
2022-10-12T23:39:06.493Z,34.03
2022-10-12T23:41:35.640Z,33.42
2022-10-12T23:44:04.214Z,32.50
2022-10-12T23:46:33.743Z,32.35
2022-10-12T23:49:02.205Z,27.05
2022-10-12T23:51:31.299Z,31.58
2022-10-12T23:54:01.664Z,27.05
2022-10-12T23:56:30.171Z,26.85
2022-10-12T23:59:02.864Z,29.85
